createdAt,value
2023-02-12T00:01:17.627Z,35.92
2023-02-12T00:03:44.314Z,35.58
2023-02-12T00:06:13.565Z,42.67
2023-02-12T00:08:42.552Z,44.67
2023-02-12T00:11:15.548Z,35.60
2023-02-12T00:13:42.442Z,39.75
2023-02-12T00:16:11.822Z,33.35
2023-02-12T00:18:38.552Z,32.70
2023-02-12T00:21:05.781Z,32.45
2023-02-12T00:23:32.873Z,32.15
2023-02-12T00:25:59.488Z,32.28
2023-02-12T00:28:26.877Z,31.88
2023-02-12T00:30:53.599Z,37.42
2023-02-12T00:33:20.234Z,42.97
2023-02-12T00:35:58.012Z,37.67
2023-02-12T00:38:24.669Z,32.25
2023-02-12T00:40:51.316Z,31.50
2023-02-12T00:43:17.987Z,32.38
2023-02-12T00:45:45.798Z,31.13
2023-02-12T00:48:13.055Z,32.33
2023-02-12T00:50:41.119Z,30.05
2023-02-12T00:53:08.160Z,29.80
2023-02-12T00:55:35.069Z,40.80
2023-02-12T00:58:01.675Z,39.20
2023-02-12T01:00:28.402Z,42.72
2023-02-12T01:02:55.136Z,43.67
2023-02-12T01:05:21.872Z,45.03
2023-02-12T01:07:53.372Z,44.05
2023-02-12T01:10:20.748Z,33.33
2023-02-12T01:12:48.078Z,38.38
2023-02-12T01:15:15.851Z,35.40
2023-02-12T01:17:42.817Z,37.30
2023-02-12T01:20:13.179Z,44.72
2023-02-12T01:22:40.101Z,41.42
2023-02-12T01:25:07.394Z,38.70
2023-02-12T01:27:34.058Z,38.90
2023-02-12T01:30:00.684Z,42.47
2023-02-12T01:32:27.342Z,33.78
2023-02-12T01:34:54.126Z,39.70
2023-02-12T01:37:20.723Z,35.53
2023-02-12T01:39:47.330Z,43.28
2023-02-12T01:42:15.285Z,34.67
2023-02-12T01:45:05.695Z,38.05
2023-02-12T01:47:32.329Z,37.75
2023-02-12T01:49:58.970Z,40.20
2023-02-12T01:52:32.539Z,33.50
2023-02-12T01:55:02.471Z,36.67
2023-02-12T01:57:32.000Z,36.60
2023-02-12T02:00:01.614Z,37.83
2023-02-12T02:02:28.805Z,40.03
2023-02-12T02:05:00.344Z,35.13
2023-02-12T02:07:27.225Z,33.05
2023-02-12T02:09:54.412Z,35.53
2023-02-12T02:12:39.921Z,27.63
2023-02-12T02:15:07.165Z,29.88
2023-02-12T02:17:57.963Z,30.52
2023-02-12T02:20:49.477Z,28.70
2023-02-12T02:23:25.137Z,30.00
2023-02-12T02:26:29.629Z,30.95
2023-02-12T02:29:34.614Z,30.27
2023-02-12T02:32:01.226Z,43.33
2023-02-12T02:34:44.732Z,40.42
2023-02-12T02:37:27.964Z,39.97
2023-02-12T02:39:57.328Z,33.50
2023-02-12T02:42:35.186Z,30.13
2023-02-12T02:45:27.149Z,32.97
2023-02-12T02:48:14.082Z,31.27
2023-02-12T02:50:46.060Z,37.90
2023-02-12T02:53:23.218Z,31.65
2023-02-12T02:55:55.052Z,29.27
2023-02-12T02:58:30.865Z,27.40
2023-02-12T03:01:19.026Z,28.77
2023-02-12T03:03:58.009Z,28.98
2023-02-12T03:06:50.632Z,31.02
2023-02-12T03:09:28.926Z,29.38
2023-02-12T03:11:59.798Z,31.60
2023-02-12T03:14:34.592Z,30.42
2023-02-12T03:17:13.950Z,34.00
2023-02-12T03:19:47.749Z,34.38
2023-02-12T03:22:26.925Z,37.30
2023-02-12T03:25:09.686Z,31.42
2023-02-12T03:28:06.378Z,27.50
2023-02-12T03:30:59.208Z,30.40
2023-02-12T03:33:55.138Z,26.95
2023-02-12T03:36:27.705Z,33.97
2023-02-12T03:38:56.513Z,28.75
2023-02-12T03:41:35.627Z,27.83
2023-02-12T03:44:14.216Z,29.13
2023-02-12T03:46:43.709Z,30.15
2023-02-12T03:49:23.579Z,28.92
2023-02-12T03:51:50.903Z,31.35
2023-02-12T03:54:21.042Z,36.83
2023-02-12T03:56:53.116Z,35.63
2023-02-12T03:59:21.943Z,30.38
2023-02-12T04:01:51.644Z,32.75
2023-02-12T04:04:18.655Z,27.10
2023-02-12T04:06:48.426Z,26.58
2023-02-12T04:09:15.978Z,23.75
2023-02-12T04:11:58.252Z,28.83
2023-02-12T04:14:55.406Z,29.27
2023-02-12T04:17:52.799Z,35.70
2023-02-12T04:20:28.505Z,30.13
2023-02-12T04:23:19.955Z,27.77
2023-02-12T04:26:11.304Z,33.13
2023-02-12T04:28:41.006Z,30.73
2023-02-12T04:31:14.433Z,34.08
2023-02-12T04:33:51.060Z,28.35
2023-02-12T04:36:23.138Z,30.83
2023-02-12T04:39:12.115Z,34.67
2023-02-12T04:41:39.587Z,24.95
2023-02-12T04:44:28.982Z,26.65
2023-02-12T04:46:55.563Z,39.00
2023-02-12T04:49:22.789Z,30.58
2023-02-12T04:51:49.508Z,28.65
2023-02-12T04:54:17.970Z,27.95
2023-02-12T04:56:45.666Z,26.17
2023-02-12T04:59:12.845Z,27.98
2023-02-12T05:01:40.781Z,29.98
2023-02-12T05:04:08.753Z,25.83
2023-02-12T05:06:36.832Z,26.80
2023-02-12T05:09:04.643Z,26.50
2023-02-12T05:11:31.269Z,29.95
2023-02-12T05:13:58.052Z,41.00
2023-02-12T05:16:24.741Z,31.70
2023-02-12T05:18:51.477Z,27.35
2023-02-12T05:21:18.095Z,29.98
2023-02-12T05:23:44.833Z,32.50
2023-02-12T05:26:14.977Z,35.60
2023-02-12T05:28:41.946Z,30.55
2023-02-12T05:31:12.838Z,31.98
2023-02-12T05:33:41.569Z,32.35
2023-02-12T05:36:11.718Z,40.15
2023-02-12T05:38:38.383Z,33.92
2023-02-12T05:41:11.230Z,37.33
2023-02-12T05:43:37.925Z,42.40
2023-02-12T05:46:06.702Z,39.80
2023-02-12T05:48:34.082Z,41.80
2023-02-12T05:51:09.292Z,43.38
2023-02-12T05:53:36.563Z,40.80
2023-02-12T05:56:17.244Z,40.55
2023-02-12T05:58:46.767Z,40.97
2023-02-12T06:01:16.942Z,38.92
2023-02-12T06:03:43.928Z,36.42
2023-02-12T06:06:11.119Z,28.73
2023-02-12T06:08:38.623Z,18.45
2023-02-12T06:11:07.765Z,28.35
2023-02-12T06:13:35.058Z,26.27
2023-02-12T06:16:02.268Z,26.40
2023-02-12T06:18:29.148Z,26.50
2023-02-12T06:20:55.882Z,30.83
2023-02-12T06:23:24.131Z,33.47
2023-02-12T06:25:56.149Z,31.45
2023-02-12T06:28:23.111Z,29.10
2023-02-12T06:30:49.716Z,27.30
2023-02-12T06:33:16.540Z,30.70
2023-02-12T06:35:43.161Z,28.73
2023-02-12T06:38:09.862Z,27.17
2023-02-12T06:40:36.521Z,27.20
2023-02-12T06:43:03.137Z,30.33
2023-02-12T06:45:29.742Z,31.17
2023-02-12T06:47:56.366Z,25.70
2023-02-12T06:50:22.969Z,25.13
2023-02-12T06:52:49.630Z,27.17
2023-02-12T06:55:16.550Z,27.27
2023-02-12T06:57:43.320Z,32.95
2023-02-12T07:00:11.016Z,25.90
2023-02-12T07:02:39.089Z,39.58
2023-02-12T07:05:06.102Z,29.27
2023-02-12T07:07:32.936Z,28.35
2023-02-12T07:09:59.603Z,28.27
2023-02-12T07:12:26.156Z,27.10
2023-02-12T07:14:52.756Z,34.17
2023-02-12T07:17:19.359Z,31.85
2023-02-12T07:19:45.925Z,30.95
2023-02-12T07:22:12.529Z,35.10
2023-02-12T07:24:39.212Z,30.65
2023-02-12T07:27:05.810Z,28.50
2023-02-12T07:29:32.456Z,25.42
2023-02-12T07:31:59.200Z,27.15
2023-02-12T07:34:25.869Z,27.90
2023-02-12T07:36:52.449Z,26.40
2023-02-12T07:39:19.016Z,29.50
2023-02-12T07:41:45.587Z,25.50
2023-02-12T07:44:13.113Z,29.55
2023-02-12T07:46:44.959Z,29.77
2023-02-12T07:49:15.125Z,27.45
2023-02-12T07:51:42.138Z,30.60
2023-02-12T07:54:10.321Z,29.75
2023-02-12T07:56:38.929Z,30.40
2023-02-12T07:59:10.368Z,26.45
2023-02-12T08:01:43.595Z,27.45
2023-02-12T08:04:13.346Z,27.52
2023-02-12T08:06:43.348Z,28.85
2023-02-12T08:09:12.136Z,30.13
2023-02-12T08:11:39.885Z,20.73
2023-02-12T08:14:06.925Z,27.50
2023-02-12T08:16:38.428Z,31.90
2023-02-12T08:19:16.880Z,31.42
2023-02-12T08:21:47.173Z,30.83
2023-02-12T08:24:13.815Z,28.92
2023-02-12T08:26:40.467Z,23.58
2023-02-12T08:29:13.218Z,24.42
2023-02-12T08:31:42.579Z,27.17
2023-02-12T08:34:32.480Z,27.00
2023-02-12T08:37:00.271Z,31.63
2023-02-12T08:39:28.546Z,26.67
2023-02-12T08:41:59.503Z,23.65
2023-02-12T08:44:26.739Z,26.75
2023-02-12T08:46:55.499Z,24.38
2023-02-12T08:49:25.161Z,28.30
2023-02-12T08:51:53.955Z,29.80
2023-02-12T08:54:28.763Z,30.60
2023-02-12T08:57:00.998Z,28.80
2023-02-12T08:59:28.071Z,29.85
2023-02-12T09:01:55.329Z,25.67
2023-02-12T09:04:27.773Z,26.10
2023-02-12T09:06:55.535Z,27.17
2023-02-12T09:09:22.298Z,28.73
2023-02-12T09:11:49.413Z,30.38
2023-02-12T09:14:17.463Z,27.83
2023-02-12T09:16:44.225Z,19.35
2023-02-12T09:19:13.450Z,30.25
2023-02-12T09:21:40.321Z,24.38
2023-02-12T09:24:07.383Z,28.92
2023-02-12T09:26:34.097Z,21.85
2023-02-12T09:29:02.835Z,25.77
2023-02-12T09:31:31.136Z,26.48
2023-02-12T09:34:03.516Z,23.40
2023-02-12T09:36:30.764Z,31.52
2023-02-12T09:38:59.195Z,23.95
2023-02-12T09:41:46.151Z,28.35
2023-02-12T09:44:58.232Z,33.28
2023-02-12T09:47:40.825Z,28.17
2023-02-12T09:50:33.628Z,30.15
2023-02-12T09:53:01.165Z,29.02
2023-02-12T09:55:31.066Z,30.08
2023-02-12T09:57:58.063Z,34.60
2023-02-12T10:00:31.074Z,31.98
2023-02-12T10:03:05.010Z,28.20
2023-02-12T10:05:37.717Z,29.67
2023-02-12T10:08:30.274Z,29.00
2023-02-12T10:11:21.910Z,31.88
2023-02-12T10:14:03.768Z,29.48
2023-02-12T10:16:55.306Z,27.95
2023-02-12T10:19:49.034Z,25.73
2023-02-12T10:26:12.635Z,28.42
2023-02-12T10:28:42.254Z,27.80
2023-02-12T10:31:30.519Z,28.23
2023-02-12T10:33:57.724Z,26.58
2023-02-12T10:36:43.817Z,27.55
2023-02-12T10:39:10.368Z,30.13
2023-02-12T10:41:42.918Z,29.00
2023-02-12T10:44:12.410Z,36.90
2023-02-12T10:46:39.104Z,32.00
2023-02-12T10:49:08.574Z,26.80
2023-02-12T10:51:50.501Z,28.55
2023-02-12T10:54:44.250Z,30.67
2023-02-12T10:57:13.120Z,29.40
2023-02-12T10:59:41.047Z,31.33
2023-02-12T11:02:21.993Z,27.38
2023-02-12T11:04:49.254Z,34.03
2023-02-12T11:07:16.378Z,30.30
2023-02-12T11:09:45.860Z,31.00
2023-02-12T11:12:30.169Z,31.42
2023-02-12T11:15:03.704Z,31.75
2023-02-12T11:17:39.848Z,26.48
2023-02-12T11:20:18.698Z,29.85
2023-02-12T11:22:56.145Z,21.00
2023-02-12T11:25:24.898Z,24.02
2023-02-12T11:28:00.500Z,26.58
2023-02-12T11:30:27.706Z,33.22
2023-02-12T11:32:54.317Z,30.55
2023-02-12T11:35:25.810Z,28.42
2023-02-12T11:37:55.933Z,26.15
2023-02-12T11:40:27.458Z,34.10
2023-02-12T11:43:06.377Z,31.35
2023-02-12T11:45:44.727Z,29.65
2023-02-12T11:48:23.810Z,28.83
2023-02-12T11:50:54.159Z,24.83
2023-02-12T11:53:28.150Z,28.88
2023-02-12T11:56:04.944Z,30.25
2023-02-12T11:58:31.920Z,29.38
2023-02-12T12:01:04.082Z,16.45
2023-02-12T12:03:40.389Z,25.80
2023-02-12T12:06:31.179Z,20.25
2023-02-12T12:09:13.278Z,15.55
2023-02-12T12:11:58.403Z,18.15
2023-02-12T12:14:55.678Z,23.63
2023-02-12T12:17:46.858Z,22.80
2023-02-12T12:20:19.491Z,11.93
2023-02-12T12:23:05.471Z,24.38
2023-02-12T12:25:44.320Z,17.83
2023-02-12T12:28:33.552Z,21.58
2023-02-12T12:31:11.404Z,23.70
2023-02-12T12:33:46.828Z,18.75
2023-02-12T12:36:13.408Z,18.02
2023-02-12T12:39:11.107Z,15.10
2023-02-12T12:42:07.935Z,20.88
2023-02-12T12:45:14.065Z,21.55
2023-02-12T12:48:01.684Z,24.77
2023-02-12T12:50:49.469Z,10.27
2023-02-12T12:53:37.875Z,23.48
2023-02-12T12:56:32.327Z,24.55
2023-02-12T12:59:19.246Z,13.88
2023-02-12T13:01:54.618Z,10.27
2023-02-12T13:04:31.678Z,11.15
2023-02-12T13:07:13.791Z,21.58
2023-02-12T13:10:03.126Z,20.65
2023-02-12T13:12:51.531Z,21.80
2023-02-12T13:15:39.327Z,21.20
2023-02-12T13:18:31.724Z,13.25
2023-02-12T13:21:09.998Z,23.98
2023-02-12T13:23:55.894Z,10.95
2023-02-12T13:26:52.745Z,16.65
2023-02-12T13:29:34.191Z,18.15
2023-02-12T13:32:12.039Z,22.35
2023-02-12T13:34:40.786Z,14.45
2023-02-12T13:37:15.178Z,26.20
2023-02-12T13:39:45.884Z,17.17
2023-02-12T13:42:37.412Z,23.75
2023-02-12T13:45:18.030Z,22.58
2023-02-12T13:47:50.339Z,10.15
2023-02-12T13:50:38.084Z,24.33
2023-02-12T13:53:25.317Z,12.93
2023-02-12T13:56:11.082Z,12.45
2023-02-12T13:58:37.655Z,25.40
2023-02-12T14:01:08.555Z,18.73
2023-02-12T14:03:36.742Z,26.55
2023-02-12T14:06:19.064Z,11.50
2023-02-12T14:08:50.521Z,10.65
2023-02-12T14:11:24.672Z,19.52
2023-02-12T14:13:53.993Z,22.38
2023-02-12T14:16:38.647Z,24.65
2023-02-12T14:19:37.697Z,16.13
2023-02-12T14:22:11.915Z,11.25
2023-02-12T14:24:38.540Z,15.93
2023-02-12T14:27:23.635Z,17.88
2023-02-12T14:30:05.361Z,23.13
2023-02-12T14:32:50.596Z,14.45
2023-02-12T14:35:26.456Z,9.52
2023-02-12T14:38:04.382Z,12.95
2023-02-12T14:40:46.733Z,12.60
2023-02-12T14:43:33.611Z,16.83
2023-02-12T14:46:22.169Z,27.17
2023-02-12T14:48:53.800Z,10.57
2023-02-12T14:51:42.966Z,9.93
2023-02-12T14:54:35.431Z,17.77
2023-02-12T14:57:08.549Z,9.82
2023-02-12T14:59:40.343Z,14.82
2023-02-12T15:02:13.927Z,23.52
2023-02-12T15:04:45.023Z,16.50
2023-02-12T15:07:20.380Z,11.25
2023-02-12T15:10:10.087Z,24.30
2023-02-12T15:12:46.403Z,13.55
2023-02-12T15:15:25.205Z,21.45
2023-02-12T15:17:59.235Z,24.90
2023-02-12T15:20:56.031Z,25.67
2023-02-12T15:23:36.112Z,23.52
2023-02-12T15:26:06.052Z,13.48
2023-02-12T15:28:36.247Z,13.60
2023-02-12T15:31:06.053Z,18.63
2023-02-12T15:33:35.873Z,25.75
2023-02-12T15:36:03.896Z,14.25
2023-02-12T15:38:34.233Z,28.88
2023-02-12T15:41:02.494Z,32.72
2023-02-12T15:43:34.853Z,32.45
2023-02-12T15:46:03.770Z,28.27
2023-02-12T15:48:33.721Z,25.65
2023-02-12T15:51:24.932Z,14.23
2023-02-12T15:53:52.558Z,15.15
2023-02-12T15:56:22.806Z,23.33
2023-02-12T15:58:52.839Z,22.60
2023-02-12T16:01:24.731Z,21.92
2023-02-12T16:04:03.147Z,21.52
2023-02-12T16:06:34.320Z,18.80
2023-02-12T16:09:07.063Z,21.38
2023-02-12T16:11:35.394Z,21.92
2023-02-12T16:14:05.636Z,20.10
2023-02-12T16:16:45.103Z,20.95
2023-02-12T16:19:33.473Z,24.92
2023-02-12T16:22:15.940Z,28.67
2023-02-12T16:24:48.851Z,25.33
2023-02-12T16:27:15.389Z,30.38
2023-02-12T16:29:48.237Z,30.20
2023-02-12T16:32:34.854Z,28.20
2023-02-12T16:35:27.331Z,27.58
2023-02-12T16:38:24.278Z,26.23
2023-02-12T16:41:26.841Z,26.17
2023-02-12T16:44:02.472Z,29.70
2023-02-12T16:46:31.005Z,27.95
2023-02-12T16:49:00.503Z,27.00
2023-02-12T16:51:28.429Z,28.35
2023-02-12T16:53:57.545Z,31.10
2023-02-12T16:56:27.886Z,26.95
2023-02-12T16:58:57.578Z,28.80
2023-02-12T17:01:33.873Z,24.55
2023-02-12T17:04:04.067Z,26.13
2023-02-12T17:06:32.573Z,25.58
2023-02-12T17:08:59.760Z,26.02
2023-02-12T17:11:28.946Z,30.45
2023-02-12T17:13:56.588Z,33.83
2023-02-12T17:16:32.141Z,27.63
2023-02-12T17:19:00.070Z,28.80
2023-02-12T17:21:41.913Z,32.88
2023-02-12T17:24:21.879Z,29.30
2023-02-12T17:26:50.548Z,29.48
2023-02-12T17:29:18.360Z,34.55
2023-02-12T17:31:45.081Z,29.55
2023-02-12T17:34:12.037Z,32.17
2023-02-12T17:36:38.756Z,26.13
2023-02-12T17:39:07.774Z,23.73
2023-02-12T17:41:34.921Z,27.98
2023-02-12T17:44:01.741Z,27.95
2023-02-12T17:46:29.725Z,30.00
2023-02-12T17:48:57.447Z,22.00
2023-02-12T17:51:25.039Z,24.80
2023-02-12T17:53:51.985Z,27.20
2023-02-12T17:56:21.182Z,25.88
2023-02-12T17:58:48.970Z,28.52
2023-02-12T18:01:19.660Z,28.08
2023-02-12T18:03:46.308Z,28.42
2023-02-12T18:06:16.188Z,33.72
2023-02-12T18:08:43.334Z,30.45
2023-02-12T18:11:11.380Z,29.95
2023-02-12T18:13:38.395Z,27.67
2023-02-12T18:16:10.412Z,27.02
2023-02-12T18:18:40.007Z,28.90
2023-02-12T18:21:11.515Z,28.92
2023-02-12T18:23:38.685Z,27.30
2023-02-12T18:26:07.983Z,35.83
2023-02-12T18:28:35.452Z,26.60
2023-02-12T18:31:02.753Z,29.95
2023-02-12T18:33:29.417Z,26.70
2023-02-12T18:36:03.407Z,27.40
2023-02-12T18:38:30.716Z,33.25
2023-02-12T18:40:59.613Z,30.98
2023-02-12T18:43:26.942Z,32.42
2023-02-12T18:45:55.207Z,33.28
2023-02-12T18:48:22.174Z,36.95
2023-02-12T18:50:51.531Z,32.05
2023-02-12T18:53:18.263Z,37.35
2023-02-12T18:55:44.900Z,49.03
2023-02-12T18:58:11.510Z,40.38
2023-02-12T19:00:38.115Z,34.50
2023-02-12T19:03:04.849Z,39.03
2023-02-12T19:05:31.563Z,49.85
2023-02-12T19:07:58.267Z,76.25
2023-02-12T19:10:24.925Z,82.57
2023-02-12T19:12:51.607Z,50.72
2023-02-12T19:15:18.543Z,40.70
2023-02-12T19:17:45.216Z,35.67
2023-02-12T19:20:13.404Z,34.50
2023-02-12T19:22:41.038Z,32.78
2023-02-12T19:25:07.953Z,33.13
2023-02-12T19:27:34.680Z,27.70
2023-02-12T19:30:02.068Z,33.28
2023-02-12T19:32:28.672Z,31.15
2023-02-12T19:34:55.231Z,32.78
2023-02-12T19:37:22.085Z,32.75
2023-02-12T19:39:48.685Z,29.67
2023-02-12T19:42:17.116Z,34.25
2023-02-12T19:44:44.443Z,31.48
2023-02-12T19:47:11.073Z,39.17
2023-02-12T19:49:38.086Z,36.30
2023-02-12T19:52:05.162Z,27.33
2023-02-12T19:54:31.791Z,32.45
2023-02-12T19:56:58.410Z,33.83
2023-02-12T19:59:26.754Z,36.97
2023-02-12T20:01:53.943Z,39.47
2023-02-12T20:04:22.161Z,31.33
2023-02-12T20:06:50.820Z,38.35
2023-02-12T20:09:19.367Z,33.72
2023-02-12T20:11:46.299Z,33.55
2023-02-12T20:14:14.390Z,34.10
2023-02-12T20:16:43.683Z,35.72
2023-02-12T20:19:14.922Z,38.03
2023-02-12T20:21:42.798Z,39.35
2023-02-12T20:24:09.479Z,35.42
2023-02-12T20:26:36.776Z,37.10
2023-02-12T20:29:05.231Z,39.75
2023-02-12T20:31:34.794Z,38.40
2023-02-12T20:34:07.712Z,43.30
2023-02-12T20:36:36.754Z,47.35
2023-02-12T20:39:05.198Z,40.42
2023-02-12T20:41:31.859Z,39.65
2023-02-12T20:44:00.525Z,37.97
2023-02-12T20:46:27.667Z,38.35
2023-02-12T20:48:54.969Z,38.25
2023-02-12T20:51:24.882Z,38.13
2023-02-12T20:53:52.362Z,39.45
2023-02-12T20:56:25.210Z,39.42
2023-02-12T20:58:52.544Z,39.75
2023-02-12T21:01:25.626Z,39.08
2023-02-12T21:03:54.646Z,38.72
2023-02-12T21:06:22.783Z,40.65
2023-02-12T21:08:51.068Z,35.55
2023-02-12T21:11:22.996Z,31.98
2023-02-12T21:13:58.774Z,31.88
2023-02-12T21:16:35.098Z,33.75
2023-02-12T21:19:01.823Z,32.97
2023-02-12T21:21:30.703Z,33.20
2023-02-12T21:23:58.561Z,31.65
2023-02-12T21:26:27.227Z,39.70
2023-02-12T21:28:56.275Z,37.45
2023-02-12T21:31:27.385Z,33.35
2023-02-12T21:33:55.421Z,35.78
2023-02-12T21:36:24.737Z,33.50
2023-02-12T21:38:52.458Z,35.45
2023-02-12T21:41:22.883Z,29.75
2023-02-12T21:43:55.974Z,30.25
2023-02-12T21:46:23.618Z,28.50
2023-02-12T21:48:51.117Z,27.42
2023-02-12T21:51:26.111Z,28.42
2023-02-12T21:53:55.691Z,28.85
2023-02-12T21:56:23.297Z,31.90
2023-02-12T21:58:51.778Z,32.47
2023-02-12T22:01:22.798Z,37.92
2023-02-12T22:03:50.073Z,31.23
2023-02-12T22:06:19.043Z,32.42
2023-02-12T22:08:46.579Z,33.60
2023-02-12T22:11:13.945Z,32.13
2023-02-12T22:13:40.960Z,39.50
2023-02-12T22:16:22.886Z,29.30
2023-02-12T22:18:52.805Z,29.05
2023-02-12T22:21:21.037Z,30.10
2023-02-12T22:23:47.983Z,29.73
2023-02-12T22:26:26.526Z,34.42
2023-02-12T22:28:56.512Z,31.20
2023-02-12T22:31:29.871Z,32.08
2023-02-12T22:33:58.888Z,36.30
2023-02-12T22:36:26.383Z,37.65
2023-02-12T22:38:54.945Z,32.60
2023-02-12T22:41:21.900Z,26.52
2023-02-12T22:43:49.304Z,28.38
2023-02-12T22:46:16.756Z,31.30
2023-02-12T22:48:44.143Z,26.08
2023-02-12T22:51:22.228Z,30.85
2023-02-12T22:53:49.013Z,27.67
2023-02-12T22:56:16.278Z,29.63
2023-02-12T22:58:43.360Z,29.30
2023-02-12T23:01:13.018Z,36.47
2023-02-12T23:03:40.123Z,32.13
2023-02-12T23:06:10.785Z,28.23
2023-02-12T23:08:37.437Z,31.08
2023-02-12T23:11:06.953Z,26.23
2023-02-12T23:13:34.142Z,25.77
2023-02-12T23:16:01.044Z,27.60
2023-02-12T23:18:27.748Z,26.85
2023-02-12T23:20:54.392Z,29.30
2023-02-12T23:23:21.769Z,25.98
2023-02-12T23:25:49.027Z,26.27
2023-02-12T23:28:16.098Z,27.27
2023-02-12T23:30:43.231Z,24.92
2023-02-12T23:33:09.996Z,21.98
2023-02-12T23:35:36.677Z,22.80
2023-02-12T23:38:04.319Z,17.65
2023-02-12T23:40:32.470Z,16.90
2023-02-12T23:42:59.764Z,12.27
2023-02-12T23:45:27.023Z,15.02
2023-02-12T23:47:53.971Z,14.90
2023-02-12T23:50:22.400Z,11.95
2023-02-12T23:52:49.091Z,14.27
2023-02-12T23:55:16.581Z,14.38
2023-02-12T23:57:43.160Z,10.15
